Time;durP1;ratioP1;P1;durP2;ratioP2;P2;SDS_P1;SDS_P2;PMS_P1;PMS_P2;Temp;Humidity;BMP_temperature;BMP_pressure;BME280_temperature;BME280_humidity;BME280_pressure;Samples;Min_cycle;Max_cycle;Signal;HPM_P1;HPM_P2
2022/12/12 05:12:50;;;;;;;21.42;8.60;;;;;;;-3.49;100.00;99354.38;5561443;32;195797;-85
2022/12/12 05:15:56;;;;;;;17.27;8.63;;;;;;;-3.54;100.00;99362.22;5548692;32;34128;-85
2022/12/12 05:18:59;;;;;;;18.45;9.02;;;;;;;-3.57;100.00;99360.50;5556674;32;34045;-85
2022/12/12 05:22:02;;;;;;;18.15;9.63;;;;;;;-3.57;100.00;99368.28;5552251;32;35231;-85
2022/12/12 05:25:05;;;;;;;19.02;9.43;;;;;;;-3.54;100.00;99375.16;5547039;32;34293;-86
2022/12/12 05:28:08;;;;;;;21.10;10.25;;;;;;;-3.64;100.00;99369.19;5545730;32;32655;-85
2022/12/12 05:31:11;;;;;;;19.67;9.65;;;;;;;-3.67;100.00;99379.62;5548172;32;33693;-85
2022/12/12 05:34:14;;;;;;;18.52;9.88;;;;;;;-3.68;100.00;99381.34;5548760;32;35123;-86
2022/12/12 05:37:16;;;;;;;21.60;10.18;;;;;;;-3.69;100.00;99396.88;5548404;32;33751;-85
2022/12/12 05:40:20;;;;;;;18.45;9.85;;;;;;;-3.77;100.00;99402.16;5550363;32;34614;-89
2022/12/12 05:43:22;;;;;;;20.50;9.93;;;;;;;-3.80;100.00;99397.84;5555191;32;33818;-90
2022/12/12 05:46:25;;;;;;;23.30;10.95;;;;;;;-3.85;100.00;99389.22;5557875;32;34787;-90
2022/12/12 05:49:28;;;;;;;17.60;9.20;;;;;;;-3.84;100.00;99392.66;5557745;32;34386;-90
2022/12/12 05:52:32;;;;;;;22.37;10.32;;;;;;;-3.89;100.00;99394.44;5552883;32;33990;-86
2022/12/12 05:55:34;;;;;;;19.58;9.95;;;;;;;-3.94;100.00;99395.34;5551157;32;34002;-85
2022/12/12 05:58:38;;;;;;;16.83;9.02;;;;;;;-3.90;100.00;99409.13;5551982;32;32971;-85
2022/12/12 06:01:41;;;;;;;20.80;10.00;;;;;;;-3.96;100.00;99393.63;5542043;32;34676;-86
2022/12/12 06:04:44;;;;;;;20.45;9.82;;;;;;;-3.93;100.00;99398.78;5547225;32;33568;-86
2022/12/12 06:07:47;;;;;;;21.70;10.50;;;;;;;-3.77;100.00;99409.94;5543794;32;35901;-86
2022/12/12 06:10:51;;;;;;;20.95;10.07;;;;;;;-3.93;100.00;99406.53;5544043;32;34484;-85
2022/12/12 06:13:53;;;;;;;21.30;9.90;;;;;;;-3.87;100.00;99401.31;5543065;32;33859;-86
2022/12/12 06:16:56;;;;;;;18.77;9.40;;;;;;;-3.93;100.00;99410.00;5546596;32;34394;-86
2022/12/12 06:19:58;;;;;;;19.00;9.95;;;;;;;-3.92;100.00;99411.72;5533327;32;34044;-86
2022/12/12 06:23:01;;;;;;;21.23;9.82;;;;;;;-3.92;100.00;99409.13;5538201;32;32579;-86
2022/12/12 06:26:05;;;;;;;18.98;10.23;;;;;;;-3.90;100.00;99418.62;5522572;32;33894;-87
2022/12/12 06:29:08;;;;;;;24.05;10.73;;;;;;;-3.82;100.00;99433.25;5526024;32;35085;-86
2022/12/12 06:32:11;;;;;;;17.90;9.65;;;;;;;-3.91;100.00;99425.56;5527968;32;33493;-86
2022/12/12 06:35:15;;;;;;;19.30;9.27;;;;;;;-3.96;100.00;99440.25;5528446;32;33758;-87
2022/12/12 06:38:19;;;;;;;21.02;10.95;;;;;;;-3.94;100.00;99428.16;5542936;32;34028;-84
2022/12/12 06:41:23;;;;;;;19.80;9.57;;;;;;;-3.98;100.00;99424.72;5551649;32;34281;-85
2022/12/12 06:44:27;;;;;;;21.62;10.40;;;;;;;-3.99;100.00;99428.19;5554227;32;33848;-85
2022/12/12 06:47:29;;;;;;;22.23;9.82;;;;;;;-3.84;100.00;99428.94;5544202;32;34229;-86
2022/12/12 06:50:32;;;;;;;23.52;9.18;;;;;;;-3.80;100.00;99441.91;5550979;32;33867;-85
2022/12/12 06:53:36;;;;;;;19.95;10.30;;;;;;;-3.70;100.00;99444.41;5553217;32;34268;-85
2022/12/12 06:56:39;;;;;;;19.52;10.25;;;;;;;-3.75;100.00;99449.66;5550868;32;33909;-85
2022/12/12 06:59:50;;;;;;;21.08;10.35;;;;;;;-3.74;100.00;99456.53;5550328;32;34108;-85
2022/12/12 07:02:52;;;;;;;21.62;11.05;;;;;;;-3.79;100.00;99460.87;5536981;32;34041;-86
2022/12/12 07:05:55;;;;;;;20.77;10.20;;;;;;;-3.74;100.00;99466.91;5535765;32;33815;-86
2022/12/12 07:08:59;;;;;;;21.95;10.45;;;;;;;-3.55;100.00;99465.06;5544841;32;32934;-87
2022/12/12 07:12:02;;;;;;;23.08;10.55;;;;;;;-3.50;100.00;99474.53;5543925;32;34058;-86
2022/12/12 07:15:05;;;;;;;20.75;10.13;;;;;;;-3.43;100.00;99464.12;5538617;32;33850;-86
2022/12/12 07:18:08;;;;;;;24.40;10.98;;;;;;;-3.39;100.00;99467.56;5534073;32;34265;-86
2022/12/12 07:21:14;;;;;;;21.30;9.70;;;;;;;-3.28;100.00;99473.53;5549994;32;34009;-86
2022/12/12 07:24:16;;;;;;;23.92;10.40;;;;;;;-3.26;100.00;99476.97;5541535;32;34925;-86
2022/12/12 07:27:19;;;;;;;19.77;9.20;;;;;;;-3.28;100.00;99490.81;5539416;32;32597;-86
2022/12/12 07:30:23;;;;;;;20.52;9.85;;;;;;;-3.26;100.00;99487.34;5551128;32;34042;-87
2022/12/12 07:33:26;;;;;;;18.20;9.27;;;;;;;-3.17;100.00;99490.75;5546578;32;34602;-86
2022/12/12 07:36:44;;;;;;;21.55;9.25;;;;;;;-3.33;100.00;99500.38;5548752;32;33898;-85
2022/12/12 07:39:47;;;;;;;17.87;9.15;;;;;;;-3.19;100.00;99489.87;5521089;32;34813;-86
2022/12/12 07:42:49;;;;;;;20.40;10.52;;;;;;;-3.20;100.00;99491.63;5536422;32;33557;-85
2022/12/12 07:45:54;;;;;;;20.73;10.07;;;;;;;-3.20;100.00;99490.75;5553037;32;34320;-85
2022/12/12 07:48:57;;;;;;;20.95;9.85;;;;;;;-3.16;100.00;99485.53;5536555;32;33318;-89
2022/12/12 07:51:59;;;;;;;21.83;10.38;;;;;;;-3.15;100.00;99489.87;5523439;32;32941;-91
2022/12/12 07:55:03;;;;;;;23.50;10.40;;;;;;;-3.13;100.00;99495.03;5539372;32;33836;-91
2022/12/12 07:58:06;;;;;;;19.70;9.38;;;;;;;-3.14;100.00;99490.72;5535192;32;32898;-87
2022/12/12 08:01:15;;;;;;;18.95;9.50;;;;;;;-3.09;100.00;99504.50;5539671;32;34116;-87
2022/12/12 08:04:18;;;;;;;20.27;9.63;;;;;;;-3.12;100.00;99512.34;5541352;32;35165;-86
2022/12/12 08:07:20;;;;;;;17.83;8.90;;;;;;;-3.10;100.00;99510.59;5540225;32;32323;-86
2022/12/12 08:10:23;;;;;;;20.45;10.38;;;;;;;-2.89;100.00;99519.06;5525515;32;32946;-86
2022/12/12 08:13:26;;;;;;;22.98;9.95;;;;;;;-3.03;100.00;99526.94;5538921;32;34890;-86
2022/12/12 08:16:29;;;;;;;22.23;9.32;;;;;;;-2.93;100.00;99522.56;5538425;32;34115;-86
2022/12/12 08:19:32;;;;;;;20.25;10.23;;;;;;;-2.83;100.00;99542.38;5551733;32;34095;-86
2022/12/12 08:22:35;;;;;;;19.92;10.20;;;;;;;-2.83;100.00;99539.78;5545458;32;34732;-86
2022/12/12 08:25:37;;;;;;;19.98;9.18;;;;;;;-2.94;100.00;99547.66;5539462;32;32473;-85
2022/12/12 08:28:43;;;;;;;19.67;9.02;;;;;;;-2.80;100.00;99546.69;5547350;32;34994;-85
2022/12/12 08:31:49;;;;;;;18.20;8.75;;;;;;;-2.81;100.00;99552.75;5551595;32;33693;-85
2022/12/12 08:34:57;;;;;;;16.62;8.35;;;;;;;-2.74;100.00;99552.69;5549553;32;34274;-85
2022/12/12 08:37:59;;;;;;;17.52;8.65;;;;;;;-2.60;100.00;99552.59;5527555;32;33189;-85
2022/12/12 08:41:05;;;;;;;18.80;8.45;;;;;;;-2.58;100.00;99550.81;5544664;32;34911;-85
2022/12/12 08:44:10;;;;;;;17.23;8.55;;;;;;;-2.45;100.00;99545.50;5546965;32;33553;-85
2022/12/12 08:47:13;;;;;;;18.12;8.18;;;;;;;-2.42;100.00;99539.44;5541848;32;33998;-86
2022/12/12 08:50:17;;;;;;;17.02;8.35;;;;;;;-2.30;100.00;99531.50;5547122;32;34836;-85
2022/12/12 08:53:20;;;;;;;15.05;8.48;;;;;;;-2.32;100.00;99533.25;5540528;32;34003;-86
2022/12/12 08:56:22;;;;;;;18.83;7.53;;;;;;;-2.28;100.00;99540.12;5522535;32;32536;-86
2022/12/12 08:59:25;;;;;;;14.63;7.25;;;;;;;-2.18;100.00;99540.91;5543388;32;33933;-85
2022/12/12 09:02:28;;;;;;;15.50;7.25;;;;;;;-2.21;100.00;99541.78;5535197;32;33757;-87
2022/12/12 09:05:31;;;;;;;14.87;7.30;;;;;;;-2.22;100.00;99541.81;5543890;32;32358;-88
2022/12/12 09:08:33;;;;;;;16.27;7.40;;;;;;;-2.15;100.00;99545.19;5537967;32;33627;-88
2022/12/12 09:11:37;;;;;;;14.87;6.82;;;;;;;-2.19;100.00;99553.03;5537291;32;33926;-88
2022/12/12 09:14:39;;;;;;;14.38;7.30;;;;;;;-2.13;100.00;99549.50;5544879;32;33480;-87
2022/12/12 09:17:42;;;;;;;13.52;7.35;;;;;;;-1.87;100.00;99550.09;5541183;32;33955;-88
2022/12/12 09:20:52;;;;;;;15.88;7.62;;;;;;;-1.88;100.00;99558.78;5535587;32;34655;-87
2022/12/12 09:23:55;;;;;;;19.33;7.30;;;;;;;-1.83;100.00;99552.63;5537764;32;33892;-87
2022/12/12 09:26:58;;;;;;;13.15;7.03;;;;;;;-1.23;100.00;99565.72;5544559;32;33874;-87
2022/12/12 09:30:01;;;;;;;14.00;7.32;;;;;;;1.55;100.00;99555.94;5540484;32;33995;-87
2022/12/12 09:33:04;;;;;;;13.57;7.47;;;;;;;3.73;65.51;99547.69;5541111;32;34030;-87
2022/12/12 09:36:08;;;;;;;13.98;7.65;;;;;;;3.61;64.29;99548.09;5539961;32;35052;-86
2022/12/12 09:39:10;;;;;;;14.13;8.18;;;;;;;5.33;57.52;99550.50;5533803;32;32790;-88
2022/12/12 09:42:25;;;;;;;10.73;6.85;;;;;;;7.68;45.71;99545.97;5538657;32;33912;-87
2022/12/12 09:45:32;;;;;;;13.02;7.37;;;;;;;5.68;49.04;99542.88;5548607;32;34684;-91
2022/12/12 09:48:42;;;;;;;14.38;7.32;;;;;;;6.65;45.25;99541.28;5545306;32;34235;-92
2022/12/12 09:52:03;;;;;;;11.50;6.53;;;;;;;8.10;42.11;99540.31;5537485;32;33606;-88
2022/12/12 09:55:37;;;;;;;11.98;6.97;;;;;;;8.83;39.46;99539.06;5540920;32;34424;-86
2022/12/12 09:58:44;;;;;;;12.82;6.80;;;;;;;8.07;37.65;99511.41;5538360;32;34674;-85
2022/12/12 10:01:57;;;;;;;12.93;7.35;;;;;;;7.44;40.16;99547.19;5542988;32;33641;-88
2022/12/12 10:05:21;;;;;;;12.90;7.05;;;;;;;5.40;44.42;99523.84;5540370;32;34150;-88
2022/12/12 10:08:53;;;;;;;13.62;7.78;;;;;;;2.07;54.70;99532.75;5534661;32;33175;-87
2022/12/12 10:11:56;;;;;;;14.55;7.55;;;;;;;1.31;58.39;99533.00;5542880;32;34242;-86
2022/12/12 10:15:07;;;;;;;17.33;7.55;;;;;;;0.93;60.83;99537.41;5539617;32;33796;-86
2022/12/12 10:18:35;;;;;;;15.63;7.45;;;;;;;0.88;61.45;99541.84;5531458;32;34397;-87
2022/12/12 10:21:39;;;;;;;15.25;7.28;;;;;;;0.09;64.98;99544.41;5525731;32;33813;-87
2022/12/12 10:25:03;;;;;;;13.25;6.82;;;;;;;-0.66;67.19;99537.94;5535417;32;34586;-87
2022/12/12 10:28:17;;;;;;;13.70;7.25;;;;;;;-0.61;68.63;99549.16;5548711;32;35004;-85
2022/12/12 10:32:02;;;;;;;11.90;6.62;;;;;;;-1.18;73.67;99568.25;5545412;32;33800;-87
2022/12/12 10:35:10;;;;;;;13.75;7.28;;;;;;;-1.28;72.39;99563.19;5557700;32;34176;-86
2022/12/12 10:38:52;;;;;;;14.20;7.32;;;;;;;-1.40;73.75;99574.63;5541956;32;33674;-86
2022/12/12 10:42:07;;;;;;;12.00;7.30;;;;;;;-1.49;73.16;99579.97;5534769;32;33351;-87
2022/12/12 10:45:26;;;;;;;14.13;7.53;;;;;;;-1.43;73.07;99563.41;5537202;32;34710;-86
2022/12/12 10:48:28;;;;;;;14.60;7.20;;;;;;;-1.70;72.09;99571.56;5551102;32;34116;-87
2022/12/12 10:51:31;;;;;;;14.15;7.53;;;;;;;-1.60;72.90;99572.31;5535266;32;32679;-87
2022/12/12 10:54:43;;;;;;;14.45;7.18;;;;;;;-1.67;74.71;99576.72;5546851;32;34038;-87
2022/12/12 10:57:45;;;;;;;13.57;7.40;;;;;;;-1.72;75.28;99569.84;5557734;32;34142;-87
2022/12/12 11:00:48;;;;;;;12.32;7.45;;;;;;;-1.70;74.50;99570.69;5550134;32;34279;-86
2022/12/12 11:03:53;;;;;;;14.43;7.57;;;;;;;-1.86;75.85;99565.66;5549247;32;34037;-85
2022/12/12 11:06:56;;;;;;;13.02;6.50;;;;;;;-1.77;76.48;99577.69;5541476;32;34587;-85
2022/12/12 11:09:59;;;;;;;11.68;6.55;;;;;;;-1.68;75.33;99577.59;5546819;32;34561;-86
2022/12/12 11:13:10;;;;;;;14.57;7.97;;;;;;;-1.74;75.31;99559.47;5546197;32;34166;-85
2022/12/12 11:16:16;;;;;;;11.77;7.05;;;;;;;-1.66;76.60;99567.19;5541534;32;34011;-85
2022/12/12 11:19:22;;;;;;;13.05;6.87;;;;;;;-1.57;76.29;99580.06;5538902;32;33764;-87
2022/12/12 11:22:29;;;;;;;14.52;7.22;;;;;;;-1.83;75.56;99583.84;5543736;32;34449;-87
2022/12/12 11:25:32;;;;;;;12.10;7.45;;;;;;;-1.79;76.06;99575.13;5556095;32;35166;-86
2022/12/12 11:28:36;;;;;;;12.77;6.97;;;;;;;-1.78;77.41;99592.44;5548533;32;33818;-86
2022/12/12 11:31:42;;;;;;;12.45;6.65;;;;;;;-1.76;76.48;99575.09;5544264;32;34109;-86
2022/12/12 11:35:01;;;;;;;12.25;6.62;;;;;;;-1.66;75.08;99581.03;5545224;32;34569;-87
2022/12/12 11:38:38;;;;;;;11.75;7.00;;;;;;;-1.56;73.71;99573.97;5538824;32;34030;-90
2022/12/12 11:42:04;;;;;;;12.07;6.78;;;;;;;-1.38;73.57;99582.41;5490968;32;33018;-86
2022/12/12 11:45:12;;;;;;;10.75;6.22;;;;;;;-0.96;73.09;99594.84;5539563;32;33794;-90
2022/12/12 11:48:40;;;;;;;12.32;6.47;;;;;;;-0.48;74.11;99591.50;5521930;32;32618;-86
2022/12/12 11:51:43;;;;;;;12.65;6.82;;;;;;;-0.89;72.21;99588.69;5537628;32;34034;-85
2022/12/12 11:54:46;;;;;;;11.70;6.57;;;;;;;-1.11;72.62;99591.59;5539418;32;34023;-86
2022/12/12 11:58:15;;;;;;;11.30;7.20;;;;;;;-0.99;73.01;99590.56;5551181;32;34023;-86
2022/12/12 12:01:35;;;;;;;12.32;6.80;;;;;;;-1.39;76.39;99583.31;5547489;32;34516;-86
2022/12/12 12:04:58;;;;;;;14.30;7.07;;;;;;;-1.12;77.19;99584.66;5541813;32;33981;-87
2022/12/12 12:08:24;;;;;;;12.98;6.78;;;;;;;-0.85;77.31;99597.31;5542645;32;34257;-87
2022/12/12 12:11:46;;;;;;;14.38;7.50;;;;;;;-0.94;79.90;99585.28;5538252;32;34219;-86
2022/12/12 12:14:51;;;;;;;11.32;7.10;;;;;;;-1.03;80.86;99582.81;5532833;32;33486;-86
2022/12/12 12:18:33;;;;;;;13.15;7.12;;;;;;;-1.22;82.01;99596.06;5522580;32;32071;-91
2022/12/12 12:21:54;;;;;;;12.35;6.62;;;;;;;-1.47;84.08;99596.41;5493899;32;32477;-87
2022/12/12 12:25:13;;;;;;;;;;;;;;;-1.91;87.97;99586.53;5535919;32;33123;-88
2022/12/12 12:28:54;;;;;;;11.95;6.80;;;;;;;-1.74;85.50;99593.28;5544613;32;33901;-88
2022/12/12 12:32:12;;;;;;;12.93;6.87;;;;;;;-1.74;86.14;99595.88;5541813;32;33565;-89
2022/12/12 12:35:20;;;;;;;11.85;6.95;;;;;;;-1.88;90.49;99588.22;5538788;32;33873;-88
2022/12/12 12:38:46;;;;;;;12.82;7.25;;;;;;;-1.89;90.89;99578.72;5517242;32;32461;-88
2022/12/12 12:42:07;;;;;;;14.10;7.35;;;;;;;-2.06;91.00;99589.31;5534140;32;34131;-91
2022/12/12 12:45:32;;;;;;;10.35;6.43;;;;;;;-2.33;94.21;99588.69;5524229;32;32510;-89
2022/12/12 12:48:39;;;;;;;12.75;7.10;;;;;;;-2.24;95.35;99595.53;5539845;32;34645;-88
2022/12/12 12:52:22;;;;;;;12.65;7.45;;;;;;;-2.08;96.13;99594.50;5535277;32;33512;-89
2022/12/12 12:55:34;;;;;;;11.60;7.05;;;;;;;-2.07;97.60;99601.41;5503915;32;33400;-87
2022/12/12 12:58:43;;;;;;;13.73;7.65;;;;;;;-1.80;94.71;99602.00;5538381;32;33676;-88
2022/12/12 13:01:49;;;;;;;12.95;6.97;;;;;;;-2.03;97.41;99612.66;5539414;32;34766;-89
2022/12/12 13:05:05;;;;;;;16.50;8.05;;;;;;;-2.05;99.10;99611.81;5545169;32;34003;-89
2022/12/12 13:08:29;;;;;;;11.60;6.60;;;;;;;-2.06;100.00;99615.28;5531237;32;32402;-89
2022/12/12 13:11:39;;;;;;;12.57;7.10;;;;;;;-1.92;98.60;99613.41;5532442;32;34147;-89
2022/12/12 13:18:36;;;;;;;15.07;7.18;;;;;;;-1.92;100.00;99616.00;5419360;26;20112;-88
2022/12/12 13:21:56;;;;;;;11.35;6.80;;;;;;;-2.04;100.00;99616.12;5559609;26;35292;-87
2022/12/12 13:25:10;;;;;;;13.07;7.07;;;;;;;-1.90;100.00;99616.84;5525891;32;34396;-86
2022/12/12 13:28:39;;;;;;;13.73;6.50;;;;;;;-2.20;100.00;99626.66;5528671;32;33983;-86
2022/12/12 13:31:58;;;;;;;13.00;5.93;;;;;;;-2.13;100.00;99617.06;5582722;26;33983;-88
2022/12/12 13:35:21;;;;;;;10.52;5.97;;;;;;;-2.13;100.00;99609.28;5550229;32;34267;-87
2022/12/12 13:38:30;;;;;;;20.35;6.80;;;;;;;-2.40;99.95;99610.41;5571884;26;34367;-88
2022/12/12 13:42:01;;;;;;;13.32;5.90;;;;;;;-2.33;99.69;99610.34;5522759;32;34073;-88
2022/12/12 13:45:36;;;;;;;11.82;6.00;;;;;;;-2.47;100.00;99617.41;5539821;32;34061;-89
2022/12/12 13:48:44;;;;;;;12.52;6.60;;;;;;;-2.39;99.50;99614.72;5565372;26;33905;-88
2022/12/12 13:51:48;;;;;;;12.57;6.95;;;;;;;-2.27;99.92;99619.81;5543101;32;34278;-88
2022/12/12 13:55:16;;;;;;;11.10;6.45;;;;;;;-2.39;100.00;99625.09;5544666;32;34788;-87
2022/12/12 13:58:32;;;;;;;11.38;6.03;;;;;;;-2.17;97.87;99629.25;5541990;32;33984;-87
2022/12/12 14:01:39;;;;;;;10.60;6.35;;;;;;;-2.36;100.00;99623.34;5551165;32;34252;-86
2022/12/12 14:04:43;;;;;;;12.50;6.47;;;;;;;-2.42;100.00;99626.00;5542835;32;33836;-86
2022/12/12 14:07:49;;;;;;;10.68;6.15;;;;;;;-2.42;100.00;99633.78;5549002;32;33590;-86
2022/12/12 14:11:00;;;;;;;12.13;6.45;;;;;;;-2.45;100.00;99633.81;5554405;32;33772;-86
2022/12/12 14:14:07;;;;;;;14.18;5.93;;;;;;;-2.39;100.00;99643.28;5556846;32;35375;-86
2022/12/12 14:17:20;;;;;;;11.32;5.95;;;;;;;-2.49;97.88;99633.00;5539151;32;33974;-86
2022/12/12 14:20:37;;;;;;;11.05;5.93;;;;;;;-2.37;97.27;99631.16;5548057;32;34905;-86
2022/12/12 14:23:42;;;;;;;9.27;5.93;;;;;;;-2.40;97.54;99623.38;5530501;32;33079;-88
2022/12/12 14:26:47;;;;;;;11.10;5.78;;;;;;;-2.35;97.23;99629.41;5513031;32;32492;-88
2022/12/12 14:29:50;;;;;;;11.18;6.30;;;;;;;-2.44;97.34;99630.34;5576503;26;34504;-87
2022/12/12 14:33:16;;;;;;;10.50;6.35;;;;;;;-2.42;98.96;99626.00;5563940;32;33863;-87
2022/12/12 14:36:48;;;;;;;13.27;6.93;;;;;;;-2.41;99.68;99625.16;5564361;32;34249;-87
2022/12/12 14:40:03;;;;;;;13.45;6.50;;;;;;;-2.52;100.00;99625.22;5543305;32;32447;-87
2022/12/12 14:43:20;;;;;;;12.23;6.45;;;;;;;-2.46;100.00;99630.34;5552239;32;34019;-87
2022/12/12 14:46:24;;;;;;;12.80;6.50;;;;;;;-2.53;100.00;99627.84;5550351;32;33982;-86
2022/12/12 14:49:27;;;;;;;16.37;6.82;;;;;;;-2.51;100.00;99629.53;5550609;32;33643;-87
2022/12/12 14:52:30;;;;;;;12.20;6.57;;;;;;;-2.45;100.00;99641.63;5551196;32;34513;-86
2022/12/12 14:55:33;;;;;;;11.73;6.28;;;;;;;-2.50;100.00;99648.59;5559519;32;33643;-86
2022/12/12 14:58:40;;;;;;;10.38;6.03;;;;;;;-2.48;100.00;99649.41;5551851;32;33693;-86
2022/12/12 15:01:47;;;;;;;12.25;6.40;;;;;;;-2.62;100.00;99660.78;5565879;26;34110;-87
2022/12/12 15:04:56;;;;;;;11.20;6.87;;;;;;;-2.44;100.00;99665.00;5549774;32;33872;-87
2022/12/12 15:08:18;;;;;;;12.32;6.70;;;;;;;-2.59;100.00;99671.16;5549915;32;34229;-87
2022/12/12 15:11:26;;;;;;;16.08;7.47;;;;;;;-2.50;100.00;99669.34;5549839;32;34310;-91
2022/12/12 15:14:30;;;;;;;15.18;7.57;;;;;;;-2.63;100.00;99678.97;5536775;32;34426;-88
2022/12/12 15:17:44;;;;;;;14.82;7.30;;;;;;;-2.55;100.00;99686.72;5537366;32;34396;-87
2022/12/12 15:20:48;;;;;;;12.90;7.12;;;;;;;-2.53;100.00;99684.97;5536515;32;34627;-87
2022/12/12 15:23:50;;;;;;;12.65;7.22;;;;;;;-2.64;100.00;99687.63;5522076;32;33967;-88
2022/12/12 15:26:57;;;;;;;13.50;7.97;;;;;;;-2.68;100.00;99688.53;5547295;32;33686;-89
2022/12/12 15:30:02;;;;;;;15.27;7.50;;;;;;;-2.73;100.00;99692.03;5543040;32;32483;-89
2022/12/12 15:33:26;;;;;;;14.40;7.45;;;;;;;-2.71;100.00;99689.41;5539648;32;34380;-87
2022/12/12 15:36:30;;;;;;;14.25;7.15;;;;;;;-2.58;100.00;99693.66;5531112;32;34470;-88
2022/12/12 15:39:33;;;;;;;13.70;7.43;;;;;;;-2.45;100.00;99698.75;5531784;32;34963;-88
2022/12/12 15:42:45;;;;;;;15.02;7.32;;;;;;;-2.62;100.00;99694.53;5517711;32;33799;-88
2022/12/12 15:45:58;;;;;;;13.98;7.47;;;;;;;-2.61;100.00;99706.66;5525244;32;33082;-87
2022/12/12 15:49:01;;;;;;;14.70;7.45;;;;;;;-2.66;100.00;99704.97;5532154;32;33921;-88
2022/12/12 15:52:37;;;;;;;13.88;7.30;;;;;;;-2.58;100.00;99710.97;5542222;32;33627;-87
2022/12/12 15:55:50;;;;;;;14.23;7.35;;;;;;;-2.69;100.00;99708.44;5535386;32;32536;-87
2022/12/12 15:59:14;;;;;;;11.63;6.43;;;;;;;-2.57;100.00;99707.47;5554888;32;35128;-87
2022/12/12 16:02:39;;;;;;;14.50;7.45;;;;;;;-2.55;100.00;99703.16;5551124;32;34253;-88
2022/12/12 16:05:42;;;;;;;12.02;6.80;;;;;;;-2.59;100.00;99706.66;5549449;32;34016;-87
2022/12/12 16:09:00;;;;;;;13.40;7.78;;;;;;;-2.60;100.00;99705.81;5530567;32;32328;-88
2022/12/12 16:12:03;;;;;;;13.13;6.85;;;;;;;-2.52;100.00;99705.72;5544013;32;33777;-87
2022/12/12 16:15:19;;;;;;;12.30;7.32;;;;;;;-2.64;100.00;99698.00;5534367;32;34824;-87
2022/12/12 16:18:23;;;;;;;13.77;7.07;;;;;;;-2.62;100.00;99712.72;5533305;32;34390;-87
2022/12/12 16:21:27;;;;;;;14.32;7.32;;;;;;;-2.35;100.00;99712.53;5532276;32;34547;-87
